sensor_id;sensor_type;location;lat;lon;timestamp;temperature;humidity
35373;DHT22;21476;51.652;7.852;2022-10-31T00:00:56;13.30;99.90
35373;DHT22;21476;51.652;7.852;2022-10-31T00:03:22;13.40;99.90
35373;DHT22;21476;51.652;7.852;2022-10-31T00:05:49;13.30;99.90
35373;DHT22;21476;51.652;7.852;2022-10-31T00:08:16;13.30;99.90
35373;DHT22;21476;51.652;7.852;2022-10-31T00:10:43;13.30;99.90
35373;DHT22;21476;51.652;7.852;2022-10-31T00:13:10;13.30;99.90
35373;DHT22;21476;51.652;7.852;2022-10-31T00:15:36;13.20;99.90
35373;DHT22;21476;51.652;7.852;2022-10-31T00:18:03;13.30;99.90
35373;DHT22;21476;51.652;7.852;2022-10-31T00:20:29;13.30;99.90
35373;DHT22;21476;51.652;7.852;2022-10-31T00:23:02;13.40;99.90
35373;DHT22;21476;51.652;7.852;2022-10-31T00:25:28;13.40;99.90
35373;DHT22;21476;51.652;7.852;2022-10-31T00:27:55;13.40;99.90
35373;DHT22;21476;51.652;7.852;2022-10-31T00:30:20;13.50;99.90
35373;DHT22;21476;51.652;7.852;2022-10-31T00:32:46;13.50;99.90
35373;DHT22;21476;51.652;7.852;2022-10-31T00:35:11;13.60;99.90
35373;DHT22;21476;51.652;7.852;2022-10-31T00:37:37;13.60;99.90
35373;DHT22;21476;51.652;7.852;2022-10-31T00:40:03;13.70;99.90
35373;DHT22;21476;51.652;7.852;2022-10-31T00:42:28;13.70;99.90
35373;DHT22;21476;51.652;7.852;2022-10-31T00:44:54;13.70;99.90
35373;DHT22;21476;51.652;7.852;2022-10-31T00:47:19;13.70;99.90
35373;DHT22;21476;51.652;7.852;2022-10-31T00:49:45;13.70;99.90
35373;DHT22;21476;51.652;7.852;2022-10-31T00:52:11;13.80;99.90
35373;DHT22;21476;51.652;7.852;2022-10-31T00:54:36;13.80;99.90
35373;DHT22;21476;51.652;7.852;2022-10-31T00:57:02;13.70;99.90
35373;DHT22;21476;51.652;7.852;2022-10-31T00:59:28;13.70;99.90
35373;DHT22;21476;51.652;7.852;2022-10-31T01:01:54;13.70;99.90
35373;DHT22;21476;51.652;7.852;2022-10-31T01:04:19;13.70;99.90
35373;DHT22;21476;51.652;7.852;2022-10-31T01:06:45;13.70;99.90
35373;DHT22;21476;51.652;7.852;2022-10-31T01:09:10;13.70;99.90
35373;DHT22;21476;51.652;7.852;2022-10-31T01:11:36;13.70;99.90
35373;DHT22;21476;51.652;7.852;2022-10-31T01:14:02;13.70;99.90
35373;DHT22;21476;51.652;7.852;2022-10-31T01:16:28;13.60;99.90
35373;DHT22;21476;51.652;7.852;2022-10-31T01:18:55;13.70;99.90
35373;DHT22;21476;51.652;7.852;2022-10-31T01:21:23;13.70;99.90
35373;DHT22;21476;51.652;7.852;2022-10-31T01:23:50;13.60;99.90
35373;DHT22;21476;51.652;7.852;2022-10-31T01:26:18;13.60;99.90
35373;DHT22;21476;51.652;7.852;2022-10-31T01:28:50;13.50;99.90
35373;DHT22;21476;51.652;7.852;2022-10-31T01:31:18;13.50;99.90
35373;DHT22;21476;51.652;7.852;2022-10-31T01:33:44;13.50;99.90
35373;DHT22;21476;51.652;7.852;2022-10-31T01:36:17;13.50;99.90
35373;DHT22;21476;51.652;7.852;2022-10-31T01:38:43;13.50;99.90
35373;DHT22;21476;51.652;7.852;2022-10-31T01:41:12;13.40;99.90
35373;DHT22;21476;51.652;7.852;2022-10-31T01:44:02;13.40;99.90
35373;DHT22;21476;51.652;7.852;2022-10-31T01:46:41;13.30;99.90
35373;DHT22;21476;51.652;7.852;2022-10-31T01:49:17;13.30;99.90
35373;DHT22;21476;51.652;7.852;2022-10-31T01:52:02;13.30;99.90
35373;DHT22;21476;51.652;7.852;2022-10-31T01:54:37;13.30;99.90
35373;DHT22;21476;51.652;7.852;2022-10-31T01:57:07;13.40;99.90
35373;DHT22;21476;51.652;7.852;2022-10-31T01:59:38;13.40;99.90
35373;DHT22;21476;51.652;7.852;2022-10-31T02:02:05;13.40;99.90
35373;DHT22;21476;51.652;7.852;2022-10-31T02:04:31;13.40;99.90
35373;DHT22;21476;51.652;7.852;2022-10-31T02:07:07;13.40;99.90
35373;DHT22;21476;51.652;7.852;2022-10-31T02:09:34;13.40;99.90
35373;DHT22;21476;51.652;7.852;2022-10-31T02:12:01;13.40;99.90
35373;DHT22;21476;51.652;7.852;2022-10-31T02:14:29;13.40;99.90
35373;DHT22;21476;51.652;7.852;2022-10-31T02:16:55;13.50;99.90
35373;DHT22;21476;51.652;7.852;2022-10-31T02:22:20;13.60;99.90
35373;DHT22;21476;51.652;7.852;2022-10-31T02:30:21;13.80;99.90
35373;DHT22;21476;51.652;7.852;2022-10-31T02:32:51;13.90;99.90
35373;DHT22;21476;51.652;7.852;2022-10-31T02:36:04;13.90;99.90
35373;DHT22;21476;51.652;7.852;2022-10-31T02:44:33;13.80;99.90
35373;DHT22;21476;51.652;7.852;2022-10-31T02:49:48;13.70;99.90
35373;DHT22;21476;51.652;7.852;2022-10-31T02:52:25;13.60;99.90
35373;DHT22;21476;51.652;7.852;2022-10-31T02:54:51;13.60;99.90
35373;DHT22;21476;51.652;7.852;2022-10-31T02:57:21;13.60;99.90
35373;DHT22;21476;51.652;7.852;2022-10-31T02:59:53;13.50;99.90
35373;DHT22;21476;51.652;7.852;2022-10-31T03:06:19;13.30;99.90
35373;DHT22;21476;51.652;7.852;2022-10-31T03:08:23;13.20;99.90
35373;DHT22;21476;51.652;7.852;2022-10-31T03:10:56;13.10;99.90
35373;DHT22;21476;51.652;7.852;2022-10-31T03:13:39;13.00;99.90
35373;DHT22;21476;51.652;7.852;2022-10-31T03:16:11;12.90;99.90
35373;DHT22;21476;51.652;7.852;2022-10-31T03:19:12;12.90;99.90
35373;DHT22;21476;51.652;7.852;2022-10-31T03:21:47;12.60;99.90
35373;DHT22;21476;51.652;7.852;2022-10-31T03:24:15;12.60;99.90
35373;DHT22;21476;51.652;7.852;2022-10-31T03:26:47;12.50;99.90
35373;DHT22;21476;51.652;7.852;2022-10-31T03:29:17;12.50;99.90
35373;DHT22;21476;51.652;7.852;2022-10-31T03:34:36;12.50;99.90
35373;DHT22;21476;51.652;7.852;2022-10-31T03:37:07;12.40;99.90
35373;DHT22;21476;51.652;7.852;2022-10-31T03:39:34;12.40;99.90
35373;DHT22;21476;51.652;7.852;2022-10-31T03:42:26;12.40;99.90
35373;DHT22;21476;51.652;7.852;2022-10-31T03:44:59;12.40;99.90
35373;DHT22;21476;51.652;7.852;2022-10-31T03:47:26;12.50;99.90
35373;DHT22;21476;51.652;7.852;2022-10-31T03:49:52;12.50;99.90
35373;DHT22;21476;51.652;7.852;2022-10-31T03:52:32;12.50;99.90
35373;DHT22;21476;51.652;7.852;2022-10-31T03:55:07;12.50;99.90
35373;DHT22;21476;51.652;7.852;2022-10-31T04:00:27;12.60;99.90
35373;DHT22;21476;51.652;7.852;2022-10-31T04:03:16;12.60;99.90
35373;DHT22;21476;51.652;7.852;2022-10-31T04:05:45;12.60;99.90
35373;DHT22;21476;51.652;7.852;2022-10-31T04:08:17;12.70;99.90
35373;DHT22;21476;51.652;7.852;2022-10-31T04:10:48;12.70;99.90
35373;DHT22;21476;51.652;7.852;2022-10-31T04:13:17;12.70;99.90
35373;DHT22;21476;51.652;7.852;2022-10-31T04:15:45;12.80;99.90
35373;DHT22;21476;51.652;7.852;2022-10-31T04:18:11;12.80;99.90
35373;DHT22;21476;51.652;7.852;2022-10-31T04:20:40;12.70;99.90
35373;DHT22;21476;51.652;7.852;2022-10-31T04:23:22;12.60;99.90
35373;DHT22;21476;51.652;7.852;2022-10-31T04:25:48;12.60;99.90
35373;DHT22;21476;51.652;7.852;2022-10-31T04:28:14;12.60;99.90
35373;DHT22;21476;51.652;7.852;2022-10-31T04:30:39;12.50;99.90
35373;DHT22;21476;51.652;7.852;2022-10-31T04:33:05;12.40;99.90
35373;DHT22;21476;51.652;7.852;2022-10-31T04:35:31;12.30;99.90
35373;DHT22;21476;51.652;7.852;2022-10-31T04:37:57;12.20;99.90
35373;DHT22;21476;51.652;7.852;2022-10-31T04:40:22;12.20;99.90
35373;DHT22;21476;51.652;7.852;2022-10-31T04:42:48;12.10;99.90
35373;DHT22;21476;51.652;7.852;2022-10-31T04:45:14;12.20;99.90
35373;DHT22;21476;51.652;7.852;2022-10-31T04:47:39;12.20;99.90
35373;DHT22;21476;51.652;7.852;2022-10-31T04:50:05;12.20;99.90
35373;DHT22;21476;51.652;7.852;2022-10-31T04:52:31;12.10;99.90
35373;DHT22;21476;51.652;7.852;2022-10-31T04:54:56;12.10;99.90
35373;DHT22;21476;51.652;7.852;2022-10-31T04:57:22;12.10;99.90
35373;DHT22;21476;51.652;7.852;2022-10-31T04:59:47;12.00;99.90
35373;DHT22;21476;51.652;7.852;2022-10-31T05:02:13;12.00;99.90
35373;DHT22;21476;51.652;7.852;2022-10-31T05:04:38;11.90;99.90
35373;DHT22;21476;51.652;7.852;2022-10-31T05:07:04;11.90;99.90
35373;DHT22;21476;51.652;7.852;2022-10-31T05:09:30;11.90;99.90
35373;DHT22;21476;51.652;7.852;2022-10-31T05:11:55;11.80;99.90
35373;DHT22;21476;51.652;7.852;2022-10-31T05:14:21;11.70;99.90
35373;DHT22;21476;51.652;7.852;2022-10-31T05:16:46;11.70;99.90
35373;DHT22;21476;51.652;7.852;2022-10-31T05:19:12;11.60;99.90
35373;DHT22;21476;51.652;7.852;2022-10-31T05:21:38;11.60;99.90
35373;DHT22;21476;51.652;7.852;2022-10-31T05:24:03;11.70;99.90
35373;DHT22;21476;51.652;7.852;2022-10-31T05:26:29;11.70;99.90
35373;DHT22;21476;51.652;7.852;2022-10-31T05:28:55;11.70;99.90
35373;DHT22;21476;51.652;7.852;2022-10-31T05:31:20;11.60;99.90
35373;DHT22;21476;51.652;7.852;2022-10-31T05:33:46;11.60;99.90
35373;DHT22;21476;51.652;7.852;2022-10-31T05:36:12;11.50;99.90
35373;DHT22;21476;51.652;7.852;2022-10-31T05:38:37;11.40;99.90
35373;DHT22;21476;51.652;7.852;2022-10-31T05:41:03;11.40;99.90
35373;DHT22;21476;51.652;7.852;2022-10-31T05:43:29;11.30;99.90
35373;DHT22;21476;51.652;7.852;2022-10-31T05:45:55;11.30;99.90
35373;DHT22;21476;51.652;7.852;2022-10-31T05:48:21;11.30;99.90
35373;DHT22;21476;51.652;7.852;2022-10-31T05:50:50;11.30;99.90
35373;DHT22;21476;51.652;7.852;2022-10-31T05:53:15;11.30;99.90
35373;DHT22;21476;51.652;7.852;2022-10-31T05:55:42;11.40;99.90
35373;DHT22;21476;51.652;7.852;2022-10-31T05:58:09;11.30;99.90
35373;DHT22;21476;51.652;7.852;2022-10-31T06:00:35;11.30;99.90
35373;DHT22;21476;51.652;7.852;2022-10-31T06:03:04;11.20;99.90
35373;DHT22;21476;51.652;7.852;2022-10-31T06:05:31;11.20;99.90
35373;DHT22;21476;51.652;7.852;2022-10-31T06:07:57;11.20;99.90
35373;DHT22;21476;51.652;7.852;2022-10-31T06:10:23;11.10;99.90
35373;DHT22;21476;51.652;7.852;2022-10-31T06:12:49;11.10;99.90
35373;DHT22;21476;51.652;7.852;2022-10-31T06:15:15;11.00;99.90
35373;DHT22;21476;51.652;7.852;2022-10-31T06:17:41;11.00;99.90
35373;DHT22;21476;51.652;7.852;2022-10-31T06:20:07;11.10;99.90
35373;DHT22;21476;51.652;7.852;2022-10-31T06:22:33;11.10;99.90
35373;DHT22;21476;51.652;7.852;2022-10-31T06:24:59;11.20;99.90
35373;DHT22;21476;51.652;7.852;2022-10-31T06:27:25;11.20;99.90
35373;DHT22;21476;51.652;7.852;2022-10-31T06:29:50;11.20;99.90
35373;DHT22;21476;51.652;7.852;2022-10-31T06:32:16;11.20;99.90
35373;DHT22;21476;51.652;7.852;2022-10-31T06:34:42;11.20;99.90
35373;DHT22;21476;51.652;7.852;2022-10-31T06:37:09;11.20;99.90
35373;DHT22;21476;51.652;7.852;2022-10-31T06:39:35;11.20;99.90
35373;DHT22;21476;51.652;7.852;2022-10-31T06:42:01;11.30;99.90
35373;DHT22;21476;51.652;7.852;2022-10-31T06:44:27;11.30;99.90
35373;DHT22;21476;51.652;7.852;2022-10-31T06:46:52;11.40;99.90
35373;DHT22;21476;51.652;7.852;2022-10-31T06:49:18;11.40;99.90
35373;DHT22;21476;51.652;7.852;2022-10-31T06:51:47;11.50;99.90
35373;DHT22;21476;51.652;7.852;2022-10-31T06:54:13;11.60;99.90
35373;DHT22;21476;51.652;7.852;2022-10-31T06:56:39;11.80;99.90
35373;DHT22;21476;51.652;7.852;2022-10-31T06:59:04;11.90;99.90
35373;DHT22;21476;51.652;7.852;2022-10-31T07:01:30;12.00;99.90
35373;DHT22;21476;51.652;7.852;2022-10-31T07:03:56;12.10;99.90
35373;DHT22;21476;51.652;7.852;2022-10-31T07:06:21;12.30;99.90
35373;DHT22;21476;51.652;7.852;2022-10-31T07:08:47;12.50;99.90
35373;DHT22;21476;51.652;7.852;2022-10-31T07:11:13;12.70;99.90
35373;DHT22;21476;51.652;7.852;2022-10-31T07:13:38;12.80;99.90
35373;DHT22;21476;51.652;7.852;2022-10-31T07:16:05;13.00;99.90
35373;DHT22;21476;51.652;7.852;2022-10-31T07:18:37;13.10;99.90
35373;DHT22;21476;51.652;7.852;2022-10-31T07:21:03;13.40;99.90
35373;DHT22;21476;51.652;7.852;2022-10-31T07:23:28;13.40;99.90
35373;DHT22;21476;51.652;7.852;2022-10-31T07:25:55;13.70;99.90
35373;DHT22;21476;51.652;7.852;2022-10-31T07:28:22;13.60;99.90
35373;DHT22;21476;51.652;7.852;2022-10-31T07:30:53;13.70;99.90
35373;DHT22;21476;51.652;7.852;2022-10-31T07:33:19;13.90;99.90
35373;DHT22;21476;51.652;7.852;2022-10-31T07:35:45;14.10;99.90
35373;DHT22;21476;51.652;7.852;2022-10-31T07:38:12;14.30;99.90
35373;DHT22;21476;51.652;7.852;2022-10-31T07:40:38;14.40;99.90
35373;DHT22;21476;51.652;7.852;2022-10-31T07:43:04;14.60;99.90
35373;DHT22;21476;51.652;7.852;2022-10-31T07:45:30;14.70;99.90
35373;DHT22;21476;51.652;7.852;2022-10-31T07:47:56;14.70;99.90
35373;DHT22;21476;51.652;7.852;2022-10-31T07:50:26;14.80;99.90
35373;DHT22;21476;51.652;7.852;2022-10-31T07:53:18;14.90;99.90
35373;DHT22;21476;51.652;7.852;2022-10-31T07:55:44;15.10;99.90
35373;DHT22;21476;51.652;7.852;2022-10-31T07:58:15;15.20;99.90
35373;DHT22;21476;51.652;7.852;2022-10-31T08:00:42;15.30;99.90
35373;DHT22;21476;51.652;7.852;2022-10-31T08:03:11;15.40;99.90
35373;DHT22;21476;51.652;7.852;2022-10-31T08:05:37;15.50;99.90
35373;DHT22;21476;51.652;7.852;2022-10-31T08:08:04;15.50;99.90
35373;DHT22;21476;51.652;7.852;2022-10-31T08:10:31;15.50;99.90
35373;DHT22;21476;51.652;7.852;2022-10-31T08:13:00;15.20;99.90
35373;DHT22;21476;51.652;7.852;2022-10-31T08:15:27;15.10;99.90
35373;DHT22;21476;51.652;7.852;2022-10-31T08:17:53;14.90;99.90
35373;DHT22;21476;51.652;7.852;2022-10-31T08:20:19;14.50;99.90
35373;DHT22;21476;51.652;7.852;2022-10-31T08:23:02;14.30;99.90
35373;DHT22;21476;51.652;7.852;2022-10-31T08:25:29;14.10;99.90
35373;DHT22;21476;51.652;7.852;2022-10-31T08:27:55;14.10;99.90
35373;DHT22;21476;51.652;7.852;2022-10-31T08:30:25;14.00;99.90
35373;DHT22;21476;51.652;7.852;2022-10-31T08:33:09;13.90;99.90
35373;DHT22;21476;51.652;7.852;2022-10-31T08:35:35;13.80;99.90
35373;DHT22;21476;51.652;7.852;2022-10-31T08:38:01;13.80;99.90
35373;DHT22;21476;51.652;7.852;2022-10-31T08:40:29;13.80;99.90
35373;DHT22;21476;51.652;7.852;2022-10-31T08:43:03;14.00;99.90
35373;DHT22;21476;51.652;7.852;2022-10-31T08:45:30;14.00;99.90
35373;DHT22;21476;51.652;7.852;2022-10-31T08:47:57;14.10;99.90
35373;DHT22;21476;51.652;7.852;2022-10-31T08:50:24;14.20;99.90
35373;DHT22;21476;51.652;7.852;2022-10-31T08:52:49;14.40;99.90
35373;DHT22;21476;51.652;7.852;2022-10-31T08:55:15;14.60;99.90
35373;DHT22;21476;51.652;7.852;2022-10-31T08:57:41;14.70;99.90
35373;DHT22;21476;51.652;7.852;2022-10-31T09:00:07;15.00;99.90
35373;DHT22;21476;51.652;7.852;2022-10-31T09:02:33;15.00;99.90
35373;DHT22;21476;51.652;7.852;2022-10-31T09:04:58;15.20;99.90
35373;DHT22;21476;51.652;7.852;2022-10-31T09:07:24;15.40;99.90
35373;DHT22;21476;51.652;7.852;2022-10-31T09:09:50;15.80;99.90
35373;DHT22;21476;51.652;7.852;2022-10-31T09:12:15;16.10;99.90
35373;DHT22;21476;51.652;7.852;2022-10-31T09:14:41;16.30;99.90
35373;DHT22;21476;51.652;7.852;2022-10-31T09:17:06;16.70;99.90
35373;DHT22;21476;51.652;7.852;2022-10-31T09:19:32;16.80;99.90
35373;DHT22;21476;51.652;7.852;2022-10-31T09:21:57;17.10;99.90
35373;DHT22;21476;51.652;7.852;2022-10-31T09:24:23;17.20;99.90
35373;DHT22;21476;51.652;7.852;2022-10-31T09:26:49;17.60;99.90
35373;DHT22;21476;51.652;7.852;2022-10-31T09:29:14;17.60;99.90
35373;DHT22;21476;51.652;7.852;2022-10-31T09:31:40;17.50;99.90
35373;DHT22;21476;51.652;7.852;2022-10-31T09:34:05;17.80;99.90
35373;DHT22;21476;51.652;7.852;2022-10-31T09:36:31;17.60;99.90
35373;DHT22;21476;51.652;7.852;2022-10-31T09:38:57;17.50;99.90
35373;DHT22;21476;51.652;7.852;2022-10-31T09:41:43;17.80;99.90
35373;DHT22;21476;51.652;7.852;2022-10-31T09:44:14;17.90;99.90
35373;DHT22;21476;51.652;7.852;2022-10-31T09:49:35;17.80;99.90
35373;DHT22;21476;51.652;7.852;2022-10-31T09:52:04;18.00;99.90
35373;DHT22;21476;51.652;7.852;2022-10-31T09:54:45;17.70;99.90
35373;DHT22;21476;51.652;7.852;2022-10-31T09:57:21;18.10;99.90
35373;DHT22;21476;51.652;7.852;2022-10-31T09:59:48;18.20;99.90
35373;DHT22;21476;51.652;7.852;2022-10-31T10:04:56;18.50;99.90
35373;DHT22;21476;51.652;7.852;2022-10-31T10:16:09;18.00;99.90
35373;DHT22;21476;51.652;7.852;2022-10-31T10:22:00;17.30;99.90
35373;DHT22;21476;51.652;7.852;2022-10-31T10:24:33;17.50;99.90
35373;DHT22;21476;51.652;7.852;2022-10-31T10:29:51;17.70;99.90
35373;DHT22;21476;51.652;7.852;2022-10-31T10:32:22;17.90;99.90
35373;DHT22;21476;51.652;7.852;2022-10-31T10:34:53;17.90;99.90
35373;DHT22;21476;51.652;7.852;2022-10-31T10:37:55;18.10;99.90
35373;DHT22;21476;51.652;7.852;2022-10-31T10:40:25;18.10;99.90
35373;DHT22;21476;51.652;7.852;2022-10-31T10:43:05;17.80;99.90
35373;DHT22;21476;51.652;7.852;2022-10-31T10:49:32;17.80;99.90
35373;DHT22;21476;51.652;7.852;2022-10-31T10:52:04;17.60;99.90
35373;DHT22;21476;51.652;7.852;2022-10-31T10:55:03;17.50;99.90
35373;DHT22;21476;51.652;7.852;2022-10-31T11:00:21;17.50;99.90
35373;DHT22;21476;51.652;7.852;2022-10-31T11:02:47;17.60;99.90
35373;DHT22;21476;51.652;7.852;2022-10-31T11:07:55;17.50;99.90
35373;DHT22;21476;51.652;7.852;2022-10-31T11:10:21;17.50;99.90
35373;DHT22;21476;51.652;7.852;2022-10-31T11:15:36;17.70;99.90
35373;DHT22;21476;51.652;7.852;2022-10-31T11:18:02;17.80;99.90
35373;DHT22;21476;51.652;7.852;2022-10-31T11:20:34;17.80;99.90
35373;DHT22;21476;51.652;7.852;2022-10-31T11:23:21;17.80;99.90
35373;DHT22;21476;51.652;7.852;2022-10-31T11:28:17;18.00;99.90
35373;DHT22;21476;51.652;7.852;2022-10-31T11:30:48;17.90;99.90
35373;DHT22;21476;51.652;7.852;2022-10-31T11:35:47;18.50;99.90
35373;DHT22;21476;51.652;7.852;2022-10-31T11:38:23;18.50;99.90
35373;DHT22;21476;51.652;7.852;2022-10-31T11:43:32;18.70;99.90
35373;DHT22;21476;51.652;7.852;2022-10-31T11:45:57;18.60;99.90
35373;DHT22;21476;51.652;7.852;2022-10-31T11:48:24;18.60;99.90
35373;DHT22;21476;51.652;7.852;2022-10-31T11:50:57;18.70;99.90
35373;DHT22;21476;51.652;7.852;2022-10-31T11:53:28;18.70;99.90
35373;DHT22;21476;51.652;7.852;2022-10-31T11:56:13;18.70;99.90
35373;DHT22;21476;51.652;7.852;2022-10-31T11:58:39;18.60;99.90
35373;DHT22;21476;51.652;7.852;2022-10-31T12:01:05;18.60;99.90
35373;DHT22;21476;51.652;7.852;2022-10-31T12:04:02;18.50;99.90
35373;DHT22;21476;51.652;7.852;2022-10-31T12:06:41;18.60;99.90
35373;DHT22;21476;51.652;7.852;2022-10-31T12:14:34;18.60;99.90
35373;DHT22;21476;51.652;7.852;2022-10-31T12:17:23;18.30;99.90
35373;DHT22;21476;51.652;7.852;2022-10-31T12:28:10;18.30;99.90
35373;DHT22;21476;51.652;7.852;2022-10-31T12:30:46;18.30;99.90
35373;DHT22;21476;51.652;7.852;2022-10-31T12:33:34;18.40;99.90
35373;DHT22;21476;51.652;7.852;2022-10-31T12:47:47;18.40;99.90
35373;DHT22;21476;51.652;7.852;2022-10-31T12:56:01;18.50;99.90
35373;DHT22;21476;51.652;7.852;2022-10-31T13:01:12;18.30;99.90
35373;DHT22;21476;51.652;7.852;2022-10-31T13:04:01;18.40;99.90
35373;DHT22;21476;51.652;7.852;2022-10-31T13:06:48;18.50;99.90
35373;DHT22;21476;51.652;7.852;2022-10-31T13:09:28;18.70;99.90
35373;DHT22;21476;51.652;7.852;2022-10-31T13:12:01;18.80;99.90
35373;DHT22;21476;51.652;7.852;2022-10-31T13:14:34;18.90;99.90
35373;DHT22;21476;51.652;7.852;2022-10-31T13:17:02;19.00;99.90
35373;DHT22;21476;51.652;7.852;2022-10-31T13:19:36;19.00;99.90
35373;DHT22;21476;51.652;7.852;2022-10-31T13:22:30;19.10;99.90
35373;DHT22;21476;51.652;7.852;2022-10-31T13:25:24;19.10;99.90
35373;DHT22;21476;51.652;7.852;2022-10-31T13:28:00;19.00;99.90
35373;DHT22;21476;51.652;7.852;2022-10-31T13:30:36;19.00;99.90
35373;DHT22;21476;51.652;7.852;2022-10-31T13:33:14;19.00;99.90
35373;DHT22;21476;51.652;7.852;2022-10-31T13:38:43;18.90;99.90
35373;DHT22;21476;51.652;7.852;2022-10-31T13:44:00;18.80;99.90
35373;DHT22;21476;51.652;7.852;2022-10-31T13:48:58;18.90;99.90
35373;DHT22;21476;51.652;7.852;2022-10-31T13:51:32;18.90;99.90
35373;DHT22;21476;51.652;7.852;2022-10-31T13:54:34;18.90;99.90
35373;DHT22;21476;51.652;7.852;2022-10-31T13:57:00;18.90;99.90
35373;DHT22;21476;51.652;7.852;2022-10-31T13:59:27;18.80;99.90
35373;DHT22;21476;51.652;7.852;2022-10-31T14:02:02;18.80;99.90
35373;DHT22;21476;51.652;7.852;2022-10-31T14:04:44;18.80;99.90
35373;DHT22;21476;51.652;7.852;2022-10-31T14:07:14;18.80;99.90
35373;DHT22;21476;51.652;7.852;2022-10-31T14:12:39;18.70;99.90
35373;DHT22;21476;51.652;7.852;2022-10-31T14:17:47;18.60;99.90
35373;DHT22;21476;51.652;7.852;2022-10-31T14:22:40;18.70;99.90
35373;DHT22;21476;51.652;7.852;2022-10-31T14:25:25;18.70;99.90
35373;DHT22;21476;51.652;7.852;2022-10-31T14:27:50;18.70;99.90
35373;DHT22;21476;51.652;7.852;2022-10-31T14:30:20;18.60;99.90
35373;DHT22;21476;51.652;7.852;2022-10-31T14:33:16;18.60;99.90
35373;DHT22;21476;51.652;7.852;2022-10-31T14:43:58;18.40;99.90
35373;DHT22;21476;51.652;7.852;2022-10-31T14:51:42;18.40;99.90
35373;DHT22;21476;51.652;7.852;2022-10-31T14:54:35;18.40;99.90
35373;DHT22;21476;51.652;7.852;2022-10-31T14:57:04;18.40;99.90
35373;DHT22;21476;51.652;7.852;2022-10-31T14:59:33;18.40;99.90
35373;DHT22;21476;51.652;7.852;2022-10-31T15:02:24;18.30;99.90
35373;DHT22;21476;51.652;7.852;2022-10-31T15:04:52;18.30;99.90
35373;DHT22;21476;51.652;7.852;2022-10-31T15:07:24;18.20;99.90
35373;DHT22;21476;51.652;7.852;2022-10-31T15:10:20;18.20;99.90
35373;DHT22;21476;51.652;7.852;2022-10-31T15:12:46;18.20;99.90
35373;DHT22;21476;51.652;7.852;2022-10-31T15:15:24;18.10;99.90
35373;DHT22;21476;51.652;7.852;2022-10-31T15:17:55;18.00;99.90
35373;DHT22;21476;51.652;7.852;2022-10-31T15:20:26;18.00;99.90
35373;DHT22;21476;51.652;7.852;2022-10-31T15:22:54;17.90;99.90
35373;DHT22;21476;51.652;7.852;2022-10-31T15:25:23;17.90;99.90
35373;DHT22;21476;51.652;7.852;2022-10-31T15:27:50;17.80;99.90
35373;DHT22;21476;51.652;7.852;2022-10-31T15:30:25;17.80;99.90
35373;DHT22;21476;51.652;7.852;2022-10-31T15:32:51;17.80;99.90
35373;DHT22;21476;51.652;7.852;2022-10-31T15:35:23;17.70;99.90
35373;DHT22;21476;51.652;7.852;2022-10-31T15:37:49;17.60;99.90
35373;DHT22;21476;51.652;7.852;2022-10-31T15:40:17;17.50;99.90
35373;DHT22;21476;51.652;7.852;2022-10-31T15:42:50;17.50;99.90
35373;DHT22;21476;51.652;7.852;2022-10-31T15:45:19;17.40;99.90
35373;DHT22;21476;51.652;7.852;2022-10-31T15:47:57;17.20;99.90
35373;DHT22;21476;51.652;7.852;2022-10-31T15:52:58;17.20;99.90
35373;DHT22;21476;51.652;7.852;2022-10-31T15:55:26;17.10;99.90
35373;DHT22;21476;51.652;7.852;2022-10-31T15:58:00;17.10;99.90
35373;DHT22;21476;51.652;7.852;2022-10-31T16:00:36;17.10;99.90
35373;DHT22;21476;51.652;7.852;2022-10-31T16:05:38;17.00;99.90
35373;DHT22;21476;51.652;7.852;2022-10-31T16:08:20;17.10;99.90
35373;DHT22;21476;51.652;7.852;2022-10-31T16:10:47;17.10;99.90
35373;DHT22;21476;51.652;7.852;2022-10-31T16:13:12;17.10;99.90
35373;DHT22;21476;51.652;7.852;2022-10-31T16:15:50;17.00;99.90
35373;DHT22;21476;51.652;7.852;2022-10-31T16:18:17;16.90;99.90
35373;DHT22;21476;51.652;7.852;2022-10-31T16:20:49;16.90;99.90
35373;DHT22;21476;51.652;7.852;2022-10-31T16:23:17;16.80;99.90
35373;DHT22;21476;51.652;7.852;2022-10-31T16:25:43;16.70;99.90
35373;DHT22;21476;51.652;7.852;2022-10-31T16:28:20;16.70;99.90
35373;DHT22;21476;51.652;7.852;2022-10-31T16:30:51;16.70;99.90
35373;DHT22;21476;51.652;7.852;2022-10-31T16:33:30;16.70;99.90
35373;DHT22;21476;51.652;7.852;2022-10-31T16:36:00;16.70;99.90
35373;DHT22;21476;51.652;7.852;2022-10-31T16:38:28;16.70;99.90
35373;DHT22;21476;51.652;7.852;2022-10-31T16:40:54;16.70;99.90
35373;DHT22;21476;51.652;7.852;2022-10-31T16:43:20;16.80;99.90
35373;DHT22;21476;51.652;7.852;2022-10-31T16:45:50;16.80;99.90
35373;DHT22;21476;51.652;7.852;2022-10-31T16:48:20;16.70;99.90
35373;DHT22;21476;51.652;7.852;2022-10-31T16:50:49;16.80;99.90
35373;DHT22;21476;51.652;7.852;2022-10-31T16:53:15;16.60;99.90
35373;DHT22;21476;51.652;7.852;2022-10-31T16:55:52;16.60;99.90
35373;DHT22;21476;51.652;7.852;2022-10-31T17:00:50;16.50;99.90
35373;DHT22;21476;51.652;7.852;2022-10-31T17:03:16;16.60;99.90
35373;DHT22;21476;51.652;7.852;2022-10-31T17:05:42;16.60;99.90
35373;DHT22;21476;51.652;7.852;2022-10-31T17:08:08;16.60;99.90
35373;DHT22;21476;51.652;7.852;2022-10-31T17:10:34;16.60;99.90
35373;DHT22;21476;51.652;7.852;2022-10-31T17:13:01;16.60;99.90
35373;DHT22;21476;51.652;7.852;2022-10-31T17:15:37;16.50;99.90
35373;DHT22;21476;51.652;7.852;2022-10-31T17:18:03;16.50;99.90
35373;DHT22;21476;51.652;7.852;2022-10-31T17:20:30;16.40;99.90
35373;DHT22;21476;51.652;7.852;2022-10-31T17:22:57;16.40;99.90
35373;DHT22;21476;51.652;7.852;2022-10-31T17:25:26;16.30;99.90
35373;DHT22;21476;51.652;7.852;2022-10-31T17:27:52;16.20;99.90
35373;DHT22;21476;51.652;7.852;2022-10-31T17:30:19;16.20;99.90
35373;DHT22;21476;51.652;7.852;2022-10-31T17:32:46;16.20;99.90
35373;DHT22;21476;51.652;7.852;2022-10-31T17:35:12;16.20;99.90
35373;DHT22;21476;51.652;7.852;2022-10-31T17:37:39;16.30;99.90
35373;DHT22;21476;51.652;7.852;2022-10-31T17:40:07;16.20;99.90
35373;DHT22;21476;51.652;7.852;2022-10-31T17:42:33;16.20;99.90
